Time;durP1;ratioP1;P1;durP2;ratioP2;P2;SDS_P1;SDS_P2;PMS_P1;PMS_P2;Temp;Humidity;BMP_temperature;BMP_pressure;BME280_temperature;BME280_humidity;BME280_pressure;Samples;Min_cycle;Max_cycle;Signal;HPM_P1;HPM_P2
2023/03/09 00:01:46;;;;;;;29.07;16.67;;;3.60;99.90;;;;;;5072566;28;20169;-71
2023/03/09 00:04:14;;;;;;;27.57;16.50;;;3.60;99.90;;;;;;5072707;28;20164;-72
2023/03/09 00:06:40;;;;;;;29.70;17.50;;;3.70;99.90;;;;;;5072558;28;20187;-72
2023/03/09 00:09:07;;;;;;;25.77;15.67;;;3.80;99.90;;;;;;5072184;28;20180;-71
2023/03/09 00:11:33;;;;;;;22.37;14.37;;;3.70;99.90;;;;;;5074223;28;20165;-72
2023/03/09 00:13:59;;;;;;;29.73;17.80;;;3.80;99.90;;;;;;5075948;28;20173;-72
2023/03/09 00:16:28;;;;;;;21.73;14.63;;;3.80;99.90;;;;;;5076119;28;20207;-72
2023/03/09 00:18:57;;;;;;;22.93;14.67;;;3.70;99.90;;;;;;5075889;28;20179;-71
2023/03/09 00:21:40;;;;;;;26.63;16.20;;;3.70;99.90;;;;;;5074443;28;20168;-71
2023/03/09 00:24:17;;;;;;;26.67;17.00;;;3.80;99.90;;;;;;5075505;28;20243;-71
2023/03/09 00:26:51;;;;;;;26.07;16.13;;;3.90;99.90;;;;;;5074488;28;20180;-71
2023/03/09 00:29:17;;;;;;;25.37;15.93;;;4.00;99.90;;;;;;5074403;28;20168;-71
2023/03/09 00:31:44;;;;;;;26.93;15.80;;;4.20;99.90;;;;;;5075672;28;20268;-71
2023/03/09 00:34:10;;;;;;;24.67;15.87;;;4.30;99.90;;;;;;5075654;28;20251;-71
2023/03/09 00:36:36;;;;;;;29.20;18.10;;;4.40;99.90;;;;;;5075276;28;20204;-70
2023/03/09 00:39:03;;;;;;;29.07;17.57;;;4.50;99.90;;;;;;5075169;28;20168;-70
2023/03/09 00:41:30;;;;;;;38.43;20.20;;;4.70;99.90;;;;;;5075679;28;20168;-71
2023/03/09 00:44:00;;;;;;;33.77;19.90;;;4.60;99.90;;;;;;5075530;28;20165;-71
2023/03/09 00:46:26;;;;;;;35.93;21.20;;;4.70;99.90;;;;;;5075122;28;20180;-72
2023/03/09 00:48:51;;;;;;;34.33;20.17;;;4.60;99.90;;;;;;5075182;28;20658;-71
2023/03/09 00:51:17;;;;;;;35.13;20.43;;;4.60;99.90;;;;;;5074922;28;20307;-71
2023/03/09 00:53:43;;;;;;;37.40;20.83;;;4.60;99.90;;;;;;5074915;28;20222;-72
2023/03/09 00:56:14;;;;;;;36.37;21.20;;;4.50;99.90;;;;;;5075123;28;20307;-71
2023/03/09 00:58:39;;;;;;;38.43;22.13;;;4.50;99.90;;;;;;5074917;28;20196;-70
2023/03/09 01:01:09;;;;;;;36.07;21.33;;;4.40;99.90;;;;;;5075032;28;20176;-71
2023/03/09 01:03:36;;;;;;;37.70;21.53;;;4.50;99.90;;;;;;5075133;28;20262;-71
2023/03/09 01:06:02;;;;;;;38.67;22.00;;;4.50;99.90;;;;;;5075016;28;20173;-71
2023/03/09 01:08:28;;;;;;;36.63;20.93;;;4.60;99.90;;;;;;5074696;28;20169;-71
2023/03/09 01:10:53;;;;;;;42.07;22.40;;;4.60;99.90;;;;;;5074934;28;20751;-71
2023/03/09 01:13:19;;;;;;;47.43;24.43;;;4.50;99.90;;;;;;5074692;28;20212;-71
2023/03/09 01:15:44;;;;;;;47.43;24.33;;;4.20;99.90;;;;;;5074805;28;20296;-72
2023/03/09 01:18:10;;;;;;;50.30;25.57;;;4.00;99.90;;;;;;5074756;28;20631;-72
2023/03/09 01:20:36;;;;;;;53.67;25.90;;;4.00;99.90;;;;;;5074799;28;20176;-71
2023/03/09 01:23:02;;;;;;;51.37;24.67;;;3.90;99.90;;;;;;5073824;28;20561;-71
2023/03/09 01:25:27;;;;;;;50.40;25.23;;;3.90;99.90;;;;;;5074539;28;20218;-71
2023/03/09 01:27:53;;;;;;;53.70;25.87;;;4.00;99.90;;;;;;5074524;28;20180;-71
2023/03/09 01:30:19;;;;;;;49.80;25.30;;;3.90;99.90;;;;;;5074554;28;20169;-70
2023/03/09 01:32:44;;;;;;;50.40;25.87;;;3.90;99.90;;;;;;5074692;28;20229;-71
2023/03/09 01:35:10;;;;;;;47.87;24.50;;;3.80;99.90;;;;;;5074281;28;20168;-71
2023/03/09 01:37:36;;;;;;;49.10;24.60;;;3.80;99.90;;;;;;5073901;28;20179;-71
2023/03/09 01:40:06;;;;;;;54.40;27.30;;;3.70;99.90;;;;;;5074403;28;20172;-70
2023/03/09 01:42:35;;;;;;;57.50;27.20;;;3.70;99.90;;;;;;5074197;28;20164;-70
2023/03/09 01:45:17;;;;;;;53.43;25.87;;;3.60;99.90;;;;;;5074241;28;20230;-70
2023/03/09 01:47:42;;;;;;;55.63;26.33;;;3.80;99.90;;;;;;5074019;28;20168;-70
2023/03/09 01:50:09;;;;;;;57.33;27.83;;;3.80;99.90;;;;;;5074082;28;20183;-70
2023/03/09 01:52:36;;;;;;;57.07;27.17;;;3.80;99.90;;;;;;5073599;28;20353;-71
2023/03/09 01:55:10;;;;;;;55.97;27.20;;;3.80;99.90;;;;;;5073893;28;20172;-71
2023/03/09 01:57:44;;;;;;;58.33;27.63;;;3.80;99.90;;;;;;5073934;28;20245;-70
2023/03/09 02:00:14;;;;;;;58.57;27.67;;;3.70;99.90;;;;;;5073921;28;20183;-70
2023/03/09 02:02:43;;;;;;;68.50;29.57;;;3.90;99.90;;;;;;5072566;28;20188;-70
2023/03/09 02:05:15;;;;;;;63.80;28.67;;;4.00;99.90;;;;;;5073471;28;20188;-70
2023/03/09 02:07:46;;;;;;;63.17;28.57;;;4.10;99.90;;;;;;5073911;28;20653;-70
2023/03/09 02:10:32;;;;;;;65.73;29.40;;;4.10;99.90;;;;;;5073854;28;20164;-70
2023/03/09 02:13:03;;;;;;;60.03;28.67;;;4.10;99.90;;;;;;5073636;28;20168;-71
2023/03/09 02:15:28;;;;;;;58.87;27.27;;;4.00;99.90;;;;;;5073555;28;20201;-70
2023/03/09 02:17:54;;;;;;;57.90;27.57;;;4.00;99.90;;;;;;5072236;28;20176;-70
2023/03/09 02:20:39;;;;;;;62.60;29.80;;;4.00;99.90;;;;;;5073391;28;20215;-70
2023/03/09 02:23:22;;;;;;;58.63;28.53;;;4.10;99.90;;;;;;5073645;28;20172;-70
2023/03/09 02:26:01;;;;;;;51.37;25.47;;;4.00;99.90;;;;;;5073394;28;20175;-71
2023/03/09 02:28:27;;;;;;;53.37;25.97;;;4.00;99.90;;;;;;5073254;28;20164;-70
2023/03/09 02:30:53;;;;;;;52.30;25.87;;;4.00;99.90;;;;;;5073613;28;20169;-70
2023/03/09 02:33:28;;;;;;;50.17;24.73;;;3.90;99.90;;;;;;5072749;28;20165;-70
2023/03/09 02:35:55;;;;;;;50.90;24.70;;;4.00;99.90;;;;;;5072960;28;20203;-71
2023/03/09 02:38:21;;;;;;;52.07;25.50;;;3.90;99.90;;;;;;5073259;28;20172;-70
2023/03/09 02:40:49;;;;;;;50.30;24.20;;;3.90;99.90;;;;;;5073141;28;20181;-70
2023/03/09 02:43:18;;;;;;;48.93;24.53;;;3.80;99.90;;;;;;5073427;28;20160;-70
2023/03/09 02:45:45;;;;;;;41.60;21.73;;;3.90;99.90;;;;;;5073366;28;20207;-70
2023/03/09 02:48:11;;;;;;;51.57;25.83;;;3.90;99.90;;;;;;5073132;28;20160;-71
2023/03/09 02:50:36;;;;;;;54.57;26.97;;;4.00;99.90;;;;;;5072756;28;20591;-70
2023/03/09 02:53:04;;;;;;;56.53;26.73;;;3.90;99.90;;;;;;5073212;28;20223;-71
2023/03/09 02:55:29;;;;;;;54.93;25.80;;;3.90;99.90;;;;;;5072836;28;20632;-71
2023/03/09 02:57:55;;;;;;;52.27;25.50;;;3.90;99.90;;;;;;5072905;28;20263;-70
2023/03/09 03:00:21;;;;;;;53.73;26.93;;;4.00;99.90;;;;;;5073127;28;20528;-70
2023/03/09 03:02:47;;;;;;;54.37;26.30;;;4.00;99.90;;;;;;5073261;28;20176;-71
2023/03/09 03:05:13;;;;;;;50.47;25.40;;;4.00;99.90;;;;;;5072695;28;20624;-71
2023/03/09 03:07:39;;;;;;;49.73;24.87;;;3.90;99.90;;;;;;5073050;28;20171;-71
2023/03/09 03:10:06;;;;;;;48.33;24.30;;;3.80;99.90;;;;;;5072959;28;20530;-70
2023/03/09 03:12:31;;;;;;;51.53;23.27;;;3.90;99.90;;;;;;5073011;28;20172;-71
2023/03/09 03:14:57;;;;;;;49.53;24.57;;;3.80;99.90;;;;;;5072939;28;20160;-71
2023/03/09 03:17:23;;;;;;;52.50;24.70;;;3.80;99.90;;;;;;5073039;28;20289;-71
2023/03/09 03:19:48;;;;;;;51.73;25.20;;;3.70;99.90;;;;;;5072681;28;20172;-71
2023/03/09 03:22:14;;;;;;;54.03;25.37;;;3.70;99.90;;;;;;5072984;28;20168;-71
2023/03/09 03:24:40;;;;;;;57.67;26.50;;;3.80;99.90;;;;;;5072680;28;20233;-71
2023/03/09 03:27:06;;;;;;;53.23;27.00;;;3.80;99.90;;;;;;5072860;28;20176;-71
2023/03/09 03:29:32;;;;;;;54.40;26.93;;;3.80;99.90;;;;;;5071527;28;20664;-71
2023/03/09 03:31:58;;;;;;;55.70;25.90;;;3.70;99.90;;;;;;5072880;28;20168;-71
2023/03/09 03:34:24;;;;;;;57.40;26.97;;;3.70;99.90;;;;;;5072622;28;20172;-71
2023/03/09 03:36:49;;;;;;;51.40;25.33;;;3.80;99.90;;;;;;5072526;28;20392;-71
2023/03/09 03:39:15;;;;;;;50.43;24.87;;;3.90;99.90;;;;;;5072763;28;20628;-69
2023/03/09 03:41:40;;;;;;;52.13;25.17;;;3.80;99.90;;;;;;5072758;28;20176;-70
2023/03/09 03:44:06;;;;;;;45.97;23.97;;;3.80;99.90;;;;;;5072658;28;20677;-71
2023/03/09 03:46:32;;;;;;;46.73;22.83;;;3.90;99.90;;;;;;5075606;28;20181;-71
2023/03/09 03:48:57;;;;;;;46.30;22.77;;;4.00;99.90;;;;;;5076596;28;20271;-70
2023/03/09 03:51:23;;;;;;;43.03;21.70;;;4.10;99.90;;;;;;5076114;28;20216;-70
2023/03/09 03:53:49;;;;;;;45.93;21.83;;;4.20;99.90;;;;;;5076250;28;20259;-71
2023/03/09 03:56:15;;;;;;;39.70;20.43;;;4.20;99.90;;;;;;5076045;28;20212;-70
2023/03/09 03:58:40;;;;;;;35.83;17.87;;;4.00;99.90;;;;;;5076120;28;20697;-70
2023/03/09 04:01:06;;;;;;;38.77;19.27;;;3.80;99.90;;;;;;5074651;28;20639;-70
2023/03/09 04:03:33;;;;;;;35.50;18.60;;;3.60;99.90;;;;;;5076121;28;20196;-71
2023/03/09 04:05:58;;;;;;;38.47;18.83;;;3.70;99.90;;;;;;5076129;28;20176;-71
2023/03/09 04:08:24;;;;;;;37.20;19.40;;;3.60;99.90;;;;;;5076016;28;20165;-71
2023/03/09 04:10:50;;;;;;;36.70;19.73;;;3.70;99.90;;;;;;5076036;28;20176;-70
2023/03/09 04:13:15;;;;;;;37.83;19.30;;;3.80;99.90;;;;;;5075844;28;20175;-70
2023/03/09 04:15:41;;;;;;;32.07;17.03;;;4.00;99.90;;;;;;5075254;28;20681;-69
2023/03/09 04:18:07;;;;;;;32.60;17.00;;;4.00;99.90;;;;;;5075753;28;20181;-71
2023/03/09 04:20:34;;;;;;;38.97;19.03;;;4.10;99.90;;;;;;5075568;28;20164;-71
2023/03/09 04:23:00;;;;;;;33.93;17.87;;;4.00;99.90;;;;;;5075339;28;20177;-71
2023/03/09 04:25:26;;;;;;;37.37;18.93;;;3.90;99.90;;;;;;5075629;28;20169;-69
2023/03/09 04:27:52;;;;;;;34.37;17.60;;;3.90;99.90;;;;;;5075636;28;20511;-70
2023/03/09 04:30:20;;;;;;;48.57;23.37;;;3.90;99.90;;;;;;5075148;28;20176;-71
2023/03/09 04:32:47;;;;;;;44.23;22.10;;;3.80;99.90;;;;;;5075219;28;20168;-71
2023/03/09 04:35:13;;;;;;;45.50;23.13;;;3.70;99.90;;;;;;5075390;28;20247;-71
2023/03/09 04:37:38;;;;;;;45.33;22.53;;;3.70;99.90;;;;;;5075454;28;20703;-71
2023/03/09 04:40:05;;;;;;;47.00;23.33;;;3.70;99.90;;;;;;5075282;28;20164;-70
2023/03/09 04:42:31;;;;;;;41.83;21.80;;;3.70;99.90;;;;;;5075285;28;20164;-70
2023/03/09 04:44:57;;;;;;;45.03;22.37;;;3.70;99.90;;;;;;5074971;28;20279;-70
2023/03/09 04:47:22;;;;;;;44.97;22.73;;;3.70;99.90;;;;;;5074614;28;20738;-70
2023/03/09 04:49:48;;;;;;;36.63;20.20;;;3.70;99.90;;;;;;5075228;28;20643;-72
2023/03/09 04:52:14;;;;;;;38.97;20.13;;;3.70;99.90;;;;;;5074602;28;20684;-71
2023/03/09 04:54:40;;;;;;;36.50;19.77;;;3.70;99.90;;;;;;5074901;28;20230;-70
2023/03/09 04:57:06;;;;;;;38.60;20.43;;;3.70;99.90;;;;;;5073503;28;20503;-70
2023/03/09 04:59:31;;;;;;;42.03;20.57;;;3.80;99.90;;;;;;5074441;28;20172;-70
2023/03/09 05:01:57;;;;;;;35.77;19.57;;;3.90;99.90;;;;;;5074754;28;20176;-71
2023/03/09 05:04:23;;;;;;;33.90;18.60;;;3.90;99.90;;;;;;5074824;28;20168;-70
2023/03/09 05:06:48;;;;;;;29.57;17.20;;;3.80;99.90;;;;;;5074185;28;20181;-70
2023/03/09 05:09:14;;;;;;;31.27;17.23;;;3.70;99.90;;;;;;5074147;28;20169;-70
2023/03/09 05:11:41;;;;;;;29.77;17.50;;;3.70;99.90;;;;;;5074047;28;20588;-70
2023/03/09 05:14:06;;;;;;;33.27;17.90;;;3.60;99.90;;;;;;5073678;28;20204;-72
2023/03/09 05:16:32;;;;;;;30.13;16.93;;;3.80;99.90;;;;;;5073647;28;20249;-71
2023/03/09 05:18:58;;;;;;;29.30;16.27;;;3.70;99.90;;;;;;5074253;28;20172;-70
2023/03/09 05:21:23;;;;;;;32.37;17.00;;;3.60;99.90;;;;;;5073569;28;20173;-70
2023/03/09 05:23:49;;;;;;;29.90;16.57;;;3.60;99.90;;;;;;5074259;28;20214;-70
2023/03/09 05:26:15;;;;;;;34.27;18.80;;;3.70;99.90;;;;;;5073816;28;20184;-70
2023/03/09 05:28:40;;;;;;;38.63;18.97;;;3.70;99.90;;;;;;5073799;28;20187;-70
2023/03/09 05:31:11;;;;;;;34.17;18.13;;;3.70;99.90;;;;;;5073850;28;20196;-70
2023/03/09 05:33:37;;;;;;;35.17;18.97;;;3.80;99.90;;;;;;5073439;28;20177;-70
2023/03/09 05:36:17;;;;;;;33.77;18.40;;;3.70;99.90;;;;;;5073408;28;20212;-71
2023/03/09 05:38:43;;;;;;;35.27;19.33;;;3.70;99.90;;;;;;5073503;28;20168;-71
2023/03/09 05:41:08;;;;;;;33.53;18.13;;;3.70;99.90;;;;;;5073358;28;20169;-70
2023/03/09 05:43:35;;;;;;;37.07;18.93;;;3.70;99.90;;;;;;5073014;28;20168;-71
2023/03/09 05:46:02;;;;;;;36.63;18.77;;;3.70;99.90;;;;;;5073524;28;20631;-71
2023/03/09 05:48:28;;;;;;;31.70;18.00;;;3.80;99.90;;;;;;5073012;28;20227;-71
2023/03/09 05:50:56;;;;;;;33.53;17.67;;;3.70;99.90;;;;;;5073651;28;20623;-71
2023/03/09 05:53:22;;;;;;;37.53;19.53;;;3.60;99.90;;;;;;5073321;28;20187;-71
2023/03/09 05:55:52;;;;;;;35.00;19.47;;;3.80;99.90;;;;;;5073226;28;20208;-71
2023/03/09 05:58:18;;;;;;;37.17;19.40;;;3.70;99.90;;;;;;5072838;28;20199;-71
2023/03/09 06:00:43;;;;;;;34.67;19.10;;;3.70;99.90;;;;;;5072619;28;20524;-71
2023/03/09 06:03:09;;;;;;;39.70;20.70;;;3.80;99.90;;;;;;5073421;28;20180;-70
2023/03/09 06:05:35;;;;;;;36.83;19.03;;;3.80;99.90;;;;;;5072815;28;20566;-70
2023/03/09 06:08:00;;;;;;;37.13;19.60;;;3.70;99.90;;;;;;5072765;28;20177;-71
2023/03/09 06:10:26;;;;;;;39.07;20.67;;;3.80;99.90;;;;;;5072563;28;20168;-72
2023/03/09 06:12:52;;;;;;;36.77;19.17;;;3.90;99.90;;;;;;5071978;28;20173;-72
2023/03/09 06:15:17;;;;;;;39.43;20.07;;;4.00;99.90;;;;;;5072128;28;20176;-71
2023/03/09 06:17:43;;;;;;;35.60;20.40;;;4.00;99.90;;;;;;5072269;28;20177;-71
2023/03/09 06:20:09;;;;;;;37.37;20.33;;;4.10;99.90;;;;;;5072315;28;20172;-71
2023/03/09 06:22:35;;;;;;;37.70;19.77;;;4.00;99.90;;;;;;5072558;28;20239;-70
2023/03/09 06:25:00;;;;;;;35.53;19.10;;;4.00;99.90;;;;;;5072650;28;20207;-71
2023/03/09 06:27:26;;;;;;;37.40;19.73;;;4.00;99.90;;;;;;5071447;28;20523;-71
2023/03/09 06:29:54;;;;;;;33.77;18.73;;;3.90;99.90;;;;;;5071978;28;20214;-70
2023/03/09 06:32:20;;;;;;;33.63;19.03;;;3.90;99.90;;;;;;5072189;28;20185;-70
2023/03/09 06:34:46;;;;;;;37.30;19.50;;;3.80;99.90;;;;;;5072373;28;20226;-72
2023/03/09 06:37:13;;;;;;;38.70;19.80;;;3.70;99.90;;;;;;5072086;28;20725;-71
2023/03/09 06:39:39;;;;;;;37.50;19.87;;;3.60;99.90;;;;;;5072368;28;20209;-70
2023/03/09 06:42:05;;;;;;;38.83;20.20;;;3.60;99.90;;;;;;5071823;28;20199;-70
2023/03/09 06:44:31;;;;;;;40.77;20.07;;;3.70;99.90;;;;;;5072307;28;20196;-71
2023/03/09 06:46:56;;;;;;;40.20;20.27;;;3.70;99.90;;;;;;5071082;28;20606;-71
2023/03/09 06:49:22;;;;;;;40.87;20.90;;;3.90;99.90;;;;;;5071442;28;20225;-71
2023/03/09 06:51:50;;;;;;;42.60;21.63;;;4.00;99.90;;;;;;5071601;28;20246;-70
2023/03/09 06:54:16;;;;;;;41.23;20.30;;;4.20;99.90;;;;;;5072046;28;20260;-72
2023/03/09 06:56:42;;;;;;;45.37;21.17;;;4.20;99.90;;;;;;5071291;28;20299;-71
2023/03/09 06:59:07;;;;;;;39.17;19.97;;;4.30;99.90;;;;;;5071564;28;20264;-70
2023/03/09 07:01:33;;;;;;;38.07;19.67;;;4.20;99.90;;;;;;5071657;28;20169;-71
2023/03/09 07:03:59;;;;;;;38.17;20.70;;;4.20;99.90;;;;;;5070320;28;20180;-71
2023/03/09 07:06:28;;;;;;;35.20;19.33;;;4.20;99.90;;;;;;5070019;28;20237;-70
2023/03/09 07:08:53;;;;;;;36.90;20.13;;;4.30;99.90;;;;;;5071697;28;20229;-70
2023/03/09 07:11:19;;;;;;;43.30;21.87;;;4.40;99.90;;;;;;5071318;28;20172;-71
2023/03/09 07:13:44;;;;;;;40.70;20.67;;;4.50;99.90;;;;;;5071554;28;20172;-71
2023/03/09 07:16:10;;;;;;;38.90;21.13;;;4.50;99.90;;;;;;5071015;28;20215;-71
2023/03/09 07:18:36;;;;;;;39.53;20.73;;;4.50;99.90;;;;;;5071764;28;20172;-70
2023/03/09 07:21:03;;;;;;;43.47;23.13;;;4.40;99.90;;;;;;5074420;28;20251;-70
2023/03/09 07:23:29;;;;;;;43.80;21.57;;;4.60;99.90;;;;;;5075426;28;20267;-71
2023/03/09 07:25:59;;;;;;;40.93;21.73;;;4.70;99.90;;;;;;5074704;28;20168;-70
2023/03/09 07:28:25;;;;;;;42.67;21.80;;;4.80;99.90;;;;;;5075797;28;20207;-71
2023/03/09 07:30:50;;;;;;;38.00;20.50;;;4.80;99.90;;;;;;5074419;28;20210;-71
2023/03/09 07:33:16;;;;;;;41.07;21.20;;;4.70;99.90;;;;;;5074424;28;20168;-72
2023/03/09 07:35:42;;;;;;;40.43;21.73;;;4.80;99.90;;;;;;5074953;28;20192;-70
2023/03/09 07:38:07;;;;;;;39.87;21.93;;;4.90;99.90;;;;;;5075169;28;20248;-71
2023/03/09 07:40:33;;;;;;;37.70;20.27;;;4.80;99.90;;;;;;5074829;28;20234;-73
2023/03/09 07:43:02;;;;;;;40.40;22.17;;;4.80;99.90;;;;;;5075602;28;20639;-72
2023/03/09 07:45:31;;;;;;;42.67;23.27;;;4.90;99.90;;;;;;5074921;28;20176;-72
2023/03/09 07:47:57;;;;;;;40.43;22.03;;;4.90;99.90;;;;;;5074690;28;20169;-72
2023/03/09 07:50:23;;;;;;;45.17;23.00;;;4.90;99.90;;;;;;5073674;28;20169;-71
2023/03/09 07:52:49;;;;;;;41.47;22.20;;;4.90;99.90;;;;;;5086319;28;20715;-72
2023/03/09 07:55:21;;;;;;;42.30;22.47;;;4.80;99.90;;;;;;5094385;28;20269;-72
2023/03/09 07:57:47;;;;;;;40.73;22.60;;;4.80;99.90;;;;;;5091469;28;20238;-70
2023/03/09 08:00:17;;;;;;;42.13;23.57;;;4.80;99.90;;;;;;5093605;28;20176;-71
2023/03/09 08:02:46;;;;;;;46.57;24.03;;;4.70;99.90;;;;;;5092052;28;20267;-71
2023/03/09 08:05:13;;;;;;;47.13;23.83;;;4.90;99.90;;;;;;5077068;28;20655;-71
2023/03/09 08:07:42;;;;;;;41.43;23.57;;;5.10;99.90;;;;;;5075719;28;20628;-70
2023/03/09 08:12:47;;;;;;;43.87;22.97;;;5.20;99.90;;;;;;5513325;22;20236;-72
2023/03/09 08:15:13;;;;;;;40.67;22.93;;;5.30;99.90;;;;;;5067689;28;21003;-72
2023/03/09 08:17:39;;;;;;;44.07;23.33;;;5.20;99.90;;;;;;5049371;28;20227;-72
2023/03/09 08:20:08;;;;;;;43.23;22.43;;;5.30;99.90;;;;;;5075830;28;20173;-73
2023/03/09 08:22:36;;;;;;;48.63;23.70;;;5.40;99.90;;;;;;5073914;28;20180;-73
2023/03/09 08:25:02;;;;;;;40.07;21.83;;;5.50;99.90;;;;;;5074752;28;20226;-72
2023/03/09 08:27:27;;;;;;;42.47;22.77;;;5.60;99.90;;;;;;5071992;28;20258;-72
2023/03/09 08:29:53;;;;;;;41.20;22.77;;;5.60;99.90;;;;;;5069337;28;20506;-73
2023/03/09 08:32:19;;;;;;;46.07;24.33;;;5.80;99.90;;;;;;5073051;28;20169;-73
2023/03/09 08:34:45;;;;;;;43.70;24.00;;;6.00;99.90;;;;;;5073325;28;20176;-73
2023/03/09 08:37:10;;;;;;;43.03;23.30;;;6.20;99.90;;;;;;5069568;28;20635;-69
2023/03/09 08:39:36;;;;;;;44.03;24.17;;;6.00;99.90;;;;;;5060954;28;20177;-70
2023/03/09 08:42:01;;;;;;;44.47;24.33;;;6.40;99.90;;;;;;5070776;28;20262;-69
2023/03/09 08:44:27;;;;;;;43.50;23.83;;;6.40;99.90;;;;;;5062904;28;20238;-70
2023/03/09 08:46:53;;;;;;;43.63;23.80;;;6.40;99.90;;;;;;5059094;28;20180;-71
2023/03/09 08:49:18;;;;;;;44.97;24.20;;;6.80;99.90;;;;;;5069466;28;20559;-70
2023/03/09 08:51:44;;;;;;;41.33;23.70;;;7.00;99.90;;;;;;5064760;28;20204;-68
2023/03/09 08:54:16;;;;;;;42.83;23.93;;;7.00;99.90;;;;;;5074018;28;20188;-71
2023/03/09 08:56:41;;;;;;;46.30;24.70;;;6.90;99.90;;;;;;5072796;28;20253;-70
2023/03/09 08:59:10;;;;;;;43.40;24.70;;;7.00;99.90;;;;;;5063625;28;20180;-70
2023/03/09 09:01:36;;;;;;;42.93;23.70;;;7.20;99.90;;;;;;5072759;28;20200;-70
2023/03/09 09:04:04;;;;;;;44.50;24.60;;;7.10;99.90;;;;;;5070940;28;20280;-70
2023/03/09 09:06:33;;;;;;;44.73;24.73;;;6.90;99.90;;;;;;5069162;28;20185;-71
2023/03/09 09:08:59;;;;;;;41.57;23.03;;;6.90;99.90;;;;;;5065168;28;20179;-69
2023/03/09 09:11:25;;;;;;;46.53;24.43;;;6.80;99.90;;;;;;5065215;28;20593;-69
2023/03/09 09:13:54;;;;;;;41.10;23.60;;;6.90;99.90;;;;;;5069352;28;20224;-71
2023/03/09 09:16:20;;;;;;;43.80;22.87;;;6.90;99.90;;;;;;5078786;28;20898;-72
2023/03/09 09:18:46;;;;;;;42.53;24.03;;;6.90;99.90;;;;;;5078196;28;20252;-71
2023/03/09 09:21:15;;;;;;;43.80;23.83;;;6.80;99.90;;;;;;5071939;28;20272;-68
2023/03/09 09:23:45;;;;;;;45.57;23.57;;;6.80;99.90;;;;;;5068680;28;20204;-70
2023/03/09 09:26:14;;;;;;;40.80;23.50;;;7.10;99.90;;;;;;5070673;28;20203;-70
2023/03/09 09:28:41;;;;;;;42.50;23.53;;;7.40;99.90;;;;;;5067061;28;20174;-69
2023/03/09 09:31:09;;;;;;;41.23;24.07;;;7.30;99.90;;;;;;5072964;28;20229;-70
2023/03/09 09:33:35;;;;;;;41.27;23.33;;;7.50;99.90;;;;;;5072049;28;20179;-71
2023/03/09 09:36:09;;;;;;;37.70;23.73;;;7.40;99.90;;;;;;5062628;28;20200;-70
2023/03/09 09:38:34;;;;;;;42.17;23.67;;;7.40;99.90;;;;;;5066445;28;20176;-71
2023/03/09 09:41:07;;;;;;;39.47;23.03;;;7.40;99.90;;;;;;5072564;28;20183;-71
2023/03/09 09:43:34;;;;;;;41.00;24.20;;;7.80;99.90;;;;;;5073708;28;20654;-71
2023/03/09 09:46:00;;;;;;;41.00;24.20;;;8.10;99.90;;;;;;5066540;28;20176;-69
2023/03/09 09:48:31;;;;;;;36.97;22.63;;;8.20;99.90;;;;;;5061803;28;20596;-70
2023/03/09 09:51:08;;;;;;;40.60;24.10;;;8.30;99.90;;;;;;5082947;28;20172;-71
2023/03/09 09:53:52;;;;;;;38.20;22.43;;;8.40;99.90;;;;;;5084528;28;20308;-71
2023/03/09 09:56:23;;;;;;;36.83;22.73;;;8.60;99.90;;;;;;5081676;28;20297;-70
2023/03/09 09:58:57;;;;;;;39.40;22.63;;;8.70;99.90;;;;;;5055026;28;20203;-72
2023/03/09 10:01:34;;;;;;;32.90;21.03;;;8.50;99.90;;;;;;5075372;28;20198;-70
2023/03/09 10:04:04;;;;;;;32.77;20.00;;;8.40;99.90;;;;;;5072181;28;20192;-71
2023/03/09 10:06:31;;;;;;;32.97;20.33;;;8.40;99.90;;;;;;5085085;28;20629;-71
2023/03/09 10:09:22;;;;;;;33.13;20.40;;;8.40;99.90;;;;;;5080869;28;20197;-71
2023/03/09 10:11:56;;;;;;;30.63;19.07;;;8.30;99.90;;;;;;5072460;28;20267;-71
2023/03/09 10:14:44;;;;;;;32.37;19.50;;;8.30;99.90;;;;;;5056800;28;20215;-72
2023/03/09 10:17:42;;;;;;;34.00;20.57;;;8.50;99.90;;;;;;5032479;28;20221;-69
2023/03/09 10:20:36;;;;;;;32.70;18.80;;;8.90;99.90;;;;;;5050241;28;20180;-71
2023/03/09 10:23:19;;;;;;;30.13;19.50;;;9.00;99.90;;;;;;5047332;28;20177;-71
2023/03/09 10:25:52;;;;;;;27.53;17.93;;;9.00;99.90;;;;;;5043489;28;20181;-71
2023/03/09 10:28:26;;;;;;;28.33;19.23;;;9.30;99.90;;;;;;5044737;28;20187;-71
2023/03/09 10:31:20;;;;;;;34.80;19.97;;;9.50;99.90;;;;;;5054116;28;20182;-71
2023/03/09 10:33:58;;;;;;;28.53;18.57;;;9.60;99.90;;;;;;5044930;28;20185;-71
2023/03/09 10:36:30;;;;;;;30.57;19.30;;;9.60;99.90;;;;;;5046420;28;20205;-72
2023/03/09 10:39:02;;;;;;;29.23;19.37;;;9.40;99.90;;;;;;5047926;28;20185;-72
2023/03/09 10:41:28;;;;;;;30.43;19.63;;;9.70;99.90;;;;;;5043434;28;20177;-72
2023/03/09 10:43:57;;;;;;;35.43;20.07;;;9.70;99.90;;;;;;5042801;28;20284;-70
2023/03/09 10:46:24;;;;;;;32.83;19.80;;;10.00;99.90;;;;;;5038952;28;20342;-71
2023/03/09 10:49:10;;;;;;;30.20;19.27;;;10.90;99.90;;;;;;5050240;28;20259;-72
2023/03/09 10:51:43;;;;;;;30.03;19.43;;;12.00;99.90;;;;;;5046926;28;20624;-71
2023/03/09 10:54:40;;;;;;;26.77;18.23;;;12.70;99.90;;;;;;5041157;28;20185;-72
2023/03/09 10:57:25;;;;;;;26.57;18.53;;;13.00;99.90;;;;;;5048842;28;20233;-72
2023/03/09 11:00:06;;;;;;;29.33;19.33;;;13.10;99.90;;;;;;5044621;28;20274;-70
2023/03/09 11:02:36;;;;;;;28.93;19.40;;;13.00;99.90;;;;;;5044971;28;20169;-72
2023/03/09 11:05:27;;;;;;;26.43;19.03;;;12.70;99.90;;;;;;5061236;28;20645;-72
2023/03/09 11:07:55;;;;;;;33.47;20.30;;;12.30;99.90;;;;;;5049392;28;20596;-72
2023/03/09 11:10:32;;;;;;;33.63;20.63;;;12.00;99.90;;;;;;5066890;28;20540;-71
2023/03/09 11:13:00;;;;;;;36.47;21.00;;;12.00;99.90;;;;;;5062067;28;20251;-71
2023/03/09 11:15:34;;;;;;;32.87;19.70;;;11.90;99.90;;;;;;5077309;28;20344;-71
2023/03/09 11:18:21;;;;;;;31.90;20.07;;;11.60;99.90;;;;;;5077766;28;20183;-71
2023/03/09 11:20:53;;;;;;;37.93;22.40;;;11.50;99.90;;;;;;5081199;28;20180;-72
2023/03/09 11:23:39;;;;;;;34.30;20.80;;;11.50;99.90;;;;;;5066287;28;20264;-72
2023/03/09 11:26:26;;;;;;;35.70;21.20;;;11.60;99.90;;;;;;5070157;28;20655;-71
2023/03/09 11:29:22;;;;;;;36.63;22.57;;;11.30;99.90;;;;;;5060061;28;20701;-71
2023/03/09 11:31:51;;;;;;;35.03;21.77;;;11.20;99.90;;;;;;5069453;28;20261;-71
2023/03/09 11:34:33;;;;;;;35.37;21.53;;;11.10;99.90;;;;;;5064781;28;20176;-71
2023/03/09 11:37:02;;;;;;;31.50;20.57;;;10.90;99.90;;;;;;5071119;28;20208;-72
2023/03/09 11:39:52;;;;;;;33.83;21.37;;;10.60;99.90;;;;;;5076027;28;20191;-74
2023/03/09 11:42:29;;;;;;;38.10;23.23;;;10.50;99.90;;;;;;5071030;28;20517;-72
2023/03/09 11:44:55;;;;;;;34.57;22.77;;;10.60;99.90;;;;;;5061577;28;20180;-72
2023/03/09 11:47:25;;;;;;;40.07;23.30;;;10.50;99.90;;;;;;5068828;28;20191;-72
2023/03/09 11:49:57;;;;;;;39.33;23.07;;;10.40;99.90;;;;;;5074020;28;20195;-72
2023/03/09 11:52:32;;;;;;;41.27;25.33;;;10.50;99.90;;;;;;5069356;28;20172;-72
2023/03/09 11:55:01;;;;;;;37.70;25.03;;;10.40;99.90;;;;;;5071535;28;20229;-72
2023/03/09 11:57:28;;;;;;;40.47;24.57;;;10.60;99.90;;;;;;5068932;28;20212;-72
2023/03/09 12:00:10;;;;;;;43.53;25.17;;;10.60;99.90;;;;;;5068111;28;20196;-72
2023/03/09 12:02:55;;;;;;;37.47;24.10;;;10.90;99.90;;;;;;5076337;28;20180;-73
2023/03/09 12:05:22;;;;;;;38.70;23.73;;;11.00;99.90;;;;;;5062175;28;20174;-72
2023/03/09 12:07:56;;;;;;;37.27;22.10;;;11.30;99.90;;;;;;5060044;28;20244;-73
2023/03/09 12:10:43;;;;;;;33.67;20.53;;;11.30;99.90;;;;;;5081316;28;20165;-72
2023/03/09 12:13:15;;;;;;;25.60;16.40;;;11.30;99.90;;;;;;5075331;28;20306;-73
2023/03/09 12:16:10;;;;;;;29.13;16.67;;;11.20;99.90;;;;;;5075425;28;20192;-72
2023/03/09 12:18:39;;;;;;;22.43;11.57;;;11.20;99.90;;;;;;4991734;28;20213;-73
2023/03/09 12:21:13;;;;;;;20.57;11.73;;;11.30;99.90;;;;;;4991302;28;20184;-72
2023/03/09 12:23:46;;;;;;;19.37;8.73;;;11.50;99.90;;;;;;4996419;28;20237;-71
2023/03/09 12:26:12;;;;;;;18.17;9.03;;;11.80;99.90;;;;;;4993002;28;20266;-71
2023/03/09 12:28:39;;;;;;;19.03;8.83;;;12.20;99.90;;;;;;4992935;28;20262;-72
2023/03/09 12:31:05;;;;;;;17.80;6.40;;;12.50;99.90;;;;;;4992149;28;20202;-72
2023/03/09 12:33:57;;;;;;;17.23;6.87;;;12.60;99.90;;;;;;4986332;28;20187;-69
2023/03/09 12:36:30;;;;;;;17.23;6.07;;;12.90;99.90;;;;;;4964416;28;20222;-72
2023/03/09 12:39:33;;;;;;;15.90;6.07;;;12.90;99.90;;;;;;4992543;28;20287;-70
2023/03/09 12:42:04;;;;;;;25.43;6.03;;;13.20;99.90;;;;;;4960779;28;20656;-70
2023/03/09 12:44:47;;;;;;;20.23;5.23;;;13.50;99.90;;;;;;4990402;28;20692;-70
2023/03/09 12:47:21;;;;;;;26.03;6.07;;;13.60;99.90;;;;;;4992983;28;20282;-69
2023/03/09 12:49:56;;;;;;;17.00;5.37;;;13.80;99.90;;;;;;4989096;28;20545;-70